sensor_id;sensor_type;location;lat;lon;timestamp;P1;durP1;ratioP1;P2;durP2;ratioP2
63398;SDS011;49533;-34.520;150.798;2023-05-10T00:02:03;0.40;;;0.40;;
63398;SDS011;49533;-34.520;150.798;2023-05-10T00:04:34;0.55;;;0.55;;
63398;SDS011;49533;-34.520;150.798;2023-05-10T00:07:01;0.40;;;0.40;;
63398;SDS011;49533;-34.520;150.798;2023-05-10T00:09:28;0.95;;;0.32;;
63398;SDS011;49533;-34.520;150.798;2023-05-10T00:11:55;1.17;;;0.30;;
63398;SDS011;49533;-34.520;150.798;2023-05-10T00:14:23;1.02;;;0.60;;
63398;SDS011;49533;-34.520;150.798;2023-05-10T00:17:01;0.60;;;0.60;;
63398;SDS011;49533;-34.520;150.798;2023-05-10T00:19:33;0.60;;;0.57;;
63398;SDS011;49533;-34.520;150.798;2023-05-10T00:22:00;0.45;;;0.45;;
63398;SDS011;49533;-34.520;150.798;2023-05-10T00:24:28;0.40;;;0.40;;
63398;SDS011;49533;-34.520;150.798;2023-05-10T00:26:55;0.70;;;0.38;;
63398;SDS011;49533;-34.520;150.798;2023-05-10T00:29:22;0.35;;;0.30;;
63398;SDS011;49533;-34.520;150.798;2023-05-10T00:31:49;0.55;;;0.40;;
63398;SDS011;49533;-34.520;150.798;2023-05-10T00:34:17;0.47;;;0.30;;
63398;SDS011;49533;-34.520;150.798;2023-05-10T00:36:44;1.15;;;0.52;;
63398;SDS011;49533;-34.520;150.798;2023-05-10T00:39:11;1.45;;;0.30;;
63398;SDS011;49533;-34.520;150.798;2023-05-10T00:41:41;0.60;;;0.60;;
63398;SDS011;49533;-34.520;150.798;2023-05-10T00:44:08;1.17;;;0.68;;
63398;SDS011;49533;-34.520;150.798;2023-05-10T00:46:36;0.65;;;0.65;;
63398;SDS011;49533;-34.520;150.798;2023-05-10T00:49:06;0.95;;;0.60;;
63398;SDS011;49533;-34.520;150.798;2023-05-10T00:51:35;0.60;;;0.35;;
63398;SDS011;49533;-34.520;150.798;2023-05-10T00:54:09;1.20;;;0.50;;
63398;SDS011;49533;-34.520;150.798;2023-05-10T00:56:37;0.40;;;0.38;;
63398;SDS011;49533;-34.520;150.798;2023-05-10T00:59:06;0.75;;;0.40;;
63398;SDS011;49533;-34.520;150.798;2023-05-10T01:01:35;2.20;;;0.77;;
63398;SDS011;49533;-34.520;150.798;2023-05-10T01:04:02;0.88;;;0.60;;
63398;SDS011;49533;-34.520;150.798;2023-05-10T01:06:30;0.90;;;0.60;;
63398;SDS011;49533;-34.520;150.798;2023-05-10T01:08:57;0.70;;;0.35;;
63398;SDS011;49533;-34.520;150.798;2023-05-10T01:11:24;1.45;;;0.60;;
63398;SDS011;49533;-34.520;150.798;2023-05-10T01:13:53;1.48;;;0.75;;
63398;SDS011;49533;-34.520;150.798;2023-05-10T01:16:23;1.63;;;0.65;;
63398;SDS011;49533;-34.520;150.798;2023-05-10T01:18:52;0.30;;;0.30;;
63398;SDS011;49533;-34.520;150.798;2023-05-10T01:24:19;2.60;;;0.85;;
63398;SDS011;49533;-34.520;150.798;2023-05-10T01:27:13;1.20;;;0.82;;
63398;SDS011;49533;-34.520;150.798;2023-05-10T01:35:55;0.75;;;0.47;;
63398;SDS011;49533;-34.520;150.798;2023-05-10T01:38:42;1.35;;;0.55;;
63398;SDS011;49533;-34.520;150.798;2023-05-10T01:41:24;0.30;;;0.30;;
63398;SDS011;49533;-34.520;150.798;2023-05-10T01:44:09;0.50;;;0.50;;
63398;SDS011;49533;-34.520;150.798;2023-05-10T01:46:44;1.77;;;0.52;;
63398;SDS011;49533;-34.520;150.798;2023-05-10T01:49:21;1.65;;;0.60;;
63398;SDS011;49533;-34.520;150.798;2023-05-10T01:51:53;0.85;;;0.50;;
63398;SDS011;49533;-34.520;150.798;2023-05-10T01:54:25;1.77;;;0.93;;
63398;SDS011;49533;-34.520;150.798;2023-05-10T01:56:55;0.70;;;0.50;;
63398;SDS011;49533;-34.520;150.798;2023-05-10T01:59:28;0.88;;;0.50;;
63398;SDS011;49533;-34.520;150.798;2023-05-10T02:01:58;0.55;;;0.22;;
63398;SDS011;49533;-34.520;150.798;2023-05-10T02:04:27;4.03;;;0.80;;
63398;SDS011;49533;-34.520;150.798;2023-05-10T02:06:56;0.43;;;0.30;;
63398;SDS011;49533;-34.520;150.798;2023-05-10T02:09:23;1.67;;;0.77;;
63398;SDS011;49533;-34.520;150.798;2023-05-10T02:11:53;1.13;;;0.50;;
63398;SDS011;49533;-34.520;150.798;2023-05-10T02:14:21;1.10;;;0.50;;
63398;SDS011;49533;-34.520;150.798;2023-05-10T02:16:50;1.35;;;0.50;;
63398;SDS011;49533;-34.520;150.798;2023-05-10T02:19:19;0.98;;;0.43;;
63398;SDS011;49533;-34.520;150.798;2023-05-10T02:21:48;1.13;;;0.57;;
63398;SDS011;49533;-34.520;150.798;2023-05-10T02:24:17;1.00;;;0.60;;
63398;SDS011;49533;-34.520;150.798;2023-05-10T02:26:45;1.30;;;0.80;;
63398;SDS011;49533;-34.520;150.798;2023-05-10T02:29:14;0.73;;;0.70;;
63398;SDS011;49533;-34.520;150.798;2023-05-10T02:31:43;1.63;;;0.68;;
63398;SDS011;49533;-34.520;150.798;2023-05-10T02:34:11;1.10;;;0.47;;
63398;SDS011;49533;-34.520;150.798;2023-05-10T02:36:39;2.05;;;0.38;;
63398;SDS011;49533;-34.520;150.798;2023-05-10T02:39:08;1.02;;;0.52;;
63398;SDS011;49533;-34.520;150.798;2023-05-10T02:41:40;1.45;;;0.70;;
63398;SDS011;49533;-34.520;150.798;2023-05-10T02:44:08;1.33;;;0.60;;
63398;SDS011;49533;-34.520;150.798;2023-05-10T02:46:36;0.88;;;0.52;;
63398;SDS011;49533;-34.520;150.798;2023-05-10T02:49:04;0.73;;;0.57;;
63398;SDS011;49533;-34.520;150.798;2023-05-10T02:51:31;0.85;;;0.43;;
63398;SDS011;49533;-34.520;150.798;2023-05-10T02:54:08;1.05;;;0.57;;
63398;SDS011;49533;-34.520;150.798;2023-05-10T02:56:42;0.95;;;0.60;;
63398;SDS011;49533;-34.520;150.798;2023-05-10T02:59:17;0.77;;;0.60;;
63398;SDS011;49533;-34.520;150.798;2023-05-10T03:01:44;1.42;;;0.63;;
63398;SDS011;49533;-34.520;150.798;2023-05-10T03:04:11;0.85;;;0.60;;
63398;SDS011;49533;-34.520;150.798;2023-05-10T03:06:39;2.70;;;0.90;;
63398;SDS011;49533;-34.520;150.798;2023-05-10T03:09:07;0.65;;;0.50;;
63398;SDS011;49533;-34.520;150.798;2023-05-10T03:11:39;1.85;;;0.60;;
63398;SDS011;49533;-34.520;150.798;2023-05-10T03:17:15;0.88;;;0.43;;
63398;SDS011;49533;-34.520;150.798;2023-05-10T03:19:56;0.70;;;0.45;;
63398;SDS011;49533;-34.520;150.798;2023-05-10T03:22:26;2.10;;;0.70;;
63398;SDS011;49533;-34.520;150.798;2023-05-10T03:24:58;0.65;;;0.52;;
63398;SDS011;49533;-34.520;150.798;2023-05-10T03:27:31;0.93;;;0.60;;
63398;SDS011;49533;-34.520;150.798;2023-05-10T03:30:00;0.90;;;0.60;;
63398;SDS011;49533;-34.520;150.798;2023-05-10T03:32:28;0.95;;;0.35;;
63398;SDS011;49533;-34.520;150.798;2023-05-10T03:34:58;0.60;;;0.60;;
63398;SDS011;49533;-34.520;150.798;2023-05-10T03:37:25;0.70;;;0.50;;
63398;SDS011;49533;-34.520;150.798;2023-05-10T03:39:53;1.27;;;0.63;;
63398;SDS011;49533;-34.520;150.798;2023-05-10T03:42:20;0.90;;;0.57;;
63398;SDS011;49533;-34.520;150.798;2023-05-10T03:44:47;1.30;;;0.90;;
63398;SDS011;49533;-34.520;150.798;2023-05-10T03:47:15;0.40;;;0.40;;
63398;SDS011;49533;-34.520;150.798;2023-05-10T03:49:42;0.40;;;0.38;;
63398;SDS011;49533;-34.520;150.798;2023-05-10T03:52:09;1.67;;;0.85;;
63398;SDS011;49533;-34.520;150.798;2023-05-10T03:54:36;0.98;;;0.60;;
63398;SDS011;49533;-34.520;150.798;2023-05-10T03:57:03;1.10;;;0.70;;
63398;SDS011;49533;-34.520;150.798;2023-05-10T03:59:30;2.25;;;1.17;;
63398;SDS011;49533;-34.520;150.798;2023-05-10T04:01:57;1.10;;;0.40;;
63398;SDS011;49533;-34.520;150.798;2023-05-10T04:04:25;0.80;;;0.60;;
63398;SDS011;49533;-34.520;150.798;2023-05-10T04:06:52;0.70;;;0.65;;
63398;SDS011;49533;-34.520;150.798;2023-05-10T04:09:19;0.65;;;0.43;;
63398;SDS011;49533;-34.520;150.798;2023-05-10T04:11:46;0.90;;;0.50;;
63398;SDS011;49533;-34.520;150.798;2023-05-10T04:14:13;1.48;;;0.63;;
63398;SDS011;49533;-34.520;150.798;2023-05-10T04:16:40;1.38;;;0.77;;
63398;SDS011;49533;-34.520;150.798;2023-05-10T04:19:07;0.57;;;0.57;;
63398;SDS011;49533;-34.520;150.798;2023-05-10T04:21:34;1.48;;;0.90;;
63398;SDS011;49533;-34.520;150.798;2023-05-10T04:24:02;1.13;;;0.60;;
63398;SDS011;49533;-34.520;150.798;2023-05-10T04:26:29;1.60;;;0.85;;
63398;SDS011;49533;-34.520;150.798;2023-05-10T04:28:56;2.30;;;0.90;;
63398;SDS011;49533;-34.520;150.798;2023-05-10T04:31:23;1.63;;;1.15;;
63398;SDS011;49533;-34.520;150.798;2023-05-10T04:33:51;1.27;;;0.73;;
63398;SDS011;49533;-34.520;150.798;2023-05-10T04:36:18;1.08;;;0.70;;
63398;SDS011;49533;-34.520;150.798;2023-05-10T04:38:46;1.70;;;0.75;;
63398;SDS011;49533;-34.520;150.798;2023-05-10T04:41:14;1.23;;;0.88;;
63398;SDS011;49533;-34.520;150.798;2023-05-10T04:43:41;3.38;;;1.15;;
63398;SDS011;49533;-34.520;150.798;2023-05-10T04:46:08;3.13;;;1.20;;
63398;SDS011;49533;-34.520;150.798;2023-05-10T04:48:35;2.45;;;1.17;;
63398;SDS011;49533;-34.520;150.798;2023-05-10T04:51:02;2.75;;;1.05;;
63398;SDS011;49533;-34.520;150.798;2023-05-10T04:53:29;2.15;;;0.80;;
63398;SDS011;49533;-34.520;150.798;2023-05-10T04:55:57;2.45;;;1.10;;
63398;SDS011;49533;-34.520;150.798;2023-05-10T04:58:24;3.40;;;1.52;;
63398;SDS011;49533;-34.520;150.798;2023-05-10T05:00:51;3.40;;;1.15;;
63398;SDS011;49533;-34.520;150.798;2023-05-10T05:03:18;1.75;;;0.90;;
63398;SDS011;49533;-34.520;150.798;2023-05-10T05:05:45;2.78;;;1.13;;
63398;SDS011;49533;-34.520;150.798;2023-05-10T05:08:12;1.90;;;1.13;;
63398;SDS011;49533;-34.520;150.798;2023-05-10T05:10:40;1.48;;;0.80;;
63398;SDS011;49533;-34.520;150.798;2023-05-10T05:13:07;2.88;;;1.00;;
63398;SDS011;49533;-34.520;150.798;2023-05-10T05:15:34;3.28;;;1.23;;
63398;SDS011;49533;-34.520;150.798;2023-05-10T05:18:01;4.10;;;1.02;;
63398;SDS011;49533;-34.520;150.798;2023-05-10T05:20:31;3.08;;;1.25;;
63398;SDS011;49533;-34.520;150.798;2023-05-10T05:23:00;2.08;;;1.20;;
63398;SDS011;49533;-34.520;150.798;2023-05-10T05:25:27;4.07;;;1.40;;
63398;SDS011;49533;-34.520;150.798;2023-05-10T05:27:54;2.03;;;0.80;;
63398;SDS011;49533;-34.520;150.798;2023-05-10T05:30:21;3.17;;;0.93;;
63398;SDS011;49533;-34.520;150.798;2023-05-10T05:32:48;2.92;;;1.10;;
63398;SDS011;49533;-34.520;150.798;2023-05-10T05:35:15;2.45;;;1.00;;
63398;SDS011;49533;-34.520;150.798;2023-05-10T05:37:42;1.00;;;0.70;;
63398;SDS011;49533;-34.520;150.798;2023-05-10T05:40:12;2.85;;;1.08;;
63398;SDS011;49533;-34.520;150.798;2023-05-10T05:42:40;1.40;;;1.00;;
63398;SDS011;49533;-34.520;150.798;2023-05-10T05:45:07;3.63;;;1.10;;
63398;SDS011;49533;-34.520;150.798;2023-05-10T05:47:38;2.05;;;0.77;;
63398;SDS011;49533;-34.520;150.798;2023-05-10T05:50:06;2.58;;;1.00;;
63398;SDS011;49533;-34.520;150.798;2023-05-10T05:52:33;4.57;;;0.95;;
63398;SDS011;49533;-34.520;150.798;2023-05-10T05:55:00;1.85;;;1.05;;
63398;SDS011;49533;-34.520;150.798;2023-05-10T05:57:27;2.38;;;0.93;;
63398;SDS011;49533;-34.520;150.798;2023-05-10T05:59:54;2.53;;;0.93;;
63398;SDS011;49533;-34.520;150.798;2023-05-10T06:02:21;2.35;;;0.88;;
63398;SDS011;49533;-34.520;150.798;2023-05-10T06:04:48;2.08;;;0.82;;
63398;SDS011;49533;-34.520;150.798;2023-05-10T06:07:16;1.83;;;1.13;;
63398;SDS011;49533;-34.520;150.798;2023-05-10T06:09:43;1.15;;;0.85;;
63398;SDS011;49533;-34.520;150.798;2023-05-10T06:12:10;1.45;;;0.95;;
63398;SDS011;49533;-34.520;150.798;2023-05-10T06:14:37;1.83;;;0.95;;
63398;SDS011;49533;-34.520;150.798;2023-05-10T06:17:04;2.55;;;1.30;;
63398;SDS011;49533;-34.520;150.798;2023-05-10T06:19:32;2.47;;;1.00;;
63398;SDS011;49533;-34.520;150.798;2023-05-10T06:21:59;1.63;;;1.00;;
63398;SDS011;49533;-34.520;150.798;2023-05-10T06:24:26;2.63;;;1.10;;
63398;SDS011;49533;-34.520;150.798;2023-05-10T06:26:53;2.00;;;0.85;;
63398;SDS011;49533;-34.520;150.798;2023-05-10T06:29:20;2.28;;;0.90;;
63398;SDS011;49533;-34.520;150.798;2023-05-10T06:31:47;2.50;;;1.63;;
63398;SDS011;49533;-34.520;150.798;2023-05-10T06:34:14;2.65;;;1.50;;
63398;SDS011;49533;-34.520;150.798;2023-05-10T06:36:42;2.80;;;1.50;;
63398;SDS011;49533;-34.520;150.798;2023-05-10T06:39:09;4.03;;;1.58;;
63398;SDS011;49533;-34.520;150.798;2023-05-10T06:41:38;2.10;;;1.50;;
63398;SDS011;49533;-34.520;150.798;2023-05-10T06:44:06;3.15;;;1.85;;
63398;SDS011;49533;-34.520;150.798;2023-05-10T06:46:33;2.83;;;1.75;;
63398;SDS011;49533;-34.520;150.798;2023-05-10T06:49:01;2.50;;;1.30;;
63398;SDS011;49533;-34.520;150.798;2023-05-10T06:51:28;2.72;;;1.77;;
63398;SDS011;49533;-34.520;150.798;2023-05-10T06:53:55;2.03;;;1.13;;
63398;SDS011;49533;-34.520;150.798;2023-05-10T06:56:22;2.13;;;1.17;;
63398;SDS011;49533;-34.520;150.798;2023-05-10T06:58:49;3.97;;;1.80;;
63398;SDS011;49533;-34.520;150.798;2023-05-10T07:01:16;2.28;;;1.63;;
63398;SDS011;49533;-34.520;150.798;2023-05-10T07:03:43;2.90;;;1.70;;
63398;SDS011;49533;-34.520;150.798;2023-05-10T07:06:10;2.08;;;1.40;;
63398;SDS011;49533;-34.520;150.798;2023-05-10T07:08:37;3.08;;;1.52;;
63398;SDS011;49533;-34.520;150.798;2023-05-10T07:11:05;2.30;;;1.38;;
63398;SDS011;49533;-34.520;150.798;2023-05-10T07:13:33;5.32;;;1.80;;
63398;SDS011;49533;-34.520;150.798;2023-05-10T07:16:01;3.50;;;1.77;;
63398;SDS011;49533;-34.520;150.798;2023-05-10T07:18:29;2.35;;;1.30;;
63398;SDS011;49533;-34.520;150.798;2023-05-10T07:20:56;2.38;;;1.42;;
63398;SDS011;49533;-34.520;150.798;2023-05-10T07:23:23;2.22;;;1.90;;
63398;SDS011;49533;-34.520;150.798;2023-05-10T07:25:50;2.88;;;2.17;;
63398;SDS011;49533;-34.520;150.798;2023-05-10T07:28:18;4.35;;;1.75;;
63398;SDS011;49533;-34.520;150.798;2023-05-10T07:30:45;3.15;;;1.55;;
63398;SDS011;49533;-34.520;150.798;2023-05-10T07:33:13;2.88;;;1.23;;
63398;SDS011;49533;-34.520;150.798;2023-05-10T07:35:41;3.72;;;1.48;;
63398;SDS011;49533;-34.520;150.798;2023-05-10T07:38:09;3.80;;;1.83;;
63398;SDS011;49533;-34.520;150.798;2023-05-10T07:40:36;2.25;;;1.60;;
63398;SDS011;49533;-34.520;150.798;2023-05-10T07:43:04;3.05;;;1.42;;
63398;SDS011;49533;-34.520;150.798;2023-05-10T07:45:32;2.67;;;1.38;;
63398;SDS011;49533;-34.520;150.798;2023-05-10T07:48:00;1.55;;;1.13;;
63398;SDS011;49533;-34.520;150.798;2023-05-10T07:50:27;2.08;;;1.48;;
63398;SDS011;49533;-34.520;150.798;2023-05-10T07:52:55;3.53;;;1.92;;
63398;SDS011;49533;-34.520;150.798;2023-05-10T07:55:22;1.77;;;1.17;;
63398;SDS011;49533;-34.520;150.798;2023-05-10T07:57:49;3.33;;;1.30;;
63398;SDS011;49533;-34.520;150.798;2023-05-10T08:00:17;2.75;;;1.35;;
63398;SDS011;49533;-34.520;150.798;2023-05-10T08:02:45;3.53;;;1.40;;
63398;SDS011;49533;-34.520;150.798;2023-05-10T08:05:13;2.70;;;1.58;;
63398;SDS011;49533;-34.520;150.798;2023-05-10T08:07:40;2.20;;;1.00;;
63398;SDS011;49533;-34.520;150.798;2023-05-10T08:10:08;2.53;;;1.30;;
63398;SDS011;49533;-34.520;150.798;2023-05-10T08:12:37;4.80;;;1.50;;
63398;SDS011;49533;-34.520;150.798;2023-05-10T08:15:04;2.70;;;1.35;;
63398;SDS011;49533;-34.520;150.798;2023-05-10T08:17:33;2.75;;;1.48;;
63398;SDS011;49533;-34.520;150.798;2023-05-10T08:20:00;1.77;;;1.27;;
63398;SDS011;49533;-34.520;150.798;2023-05-10T08:22:27;4.53;;;1.77;;
63398;SDS011;49533;-34.520;150.798;2023-05-10T08:24:54;4.38;;;1.58;;
63398;SDS011;49533;-34.520;150.798;2023-05-10T08:27:21;2.08;;;1.05;;
63398;SDS011;49533;-34.520;150.798;2023-05-10T08:29:49;3.17;;;1.40;;
63398;SDS011;49533;-34.520;150.798;2023-05-10T08:32:16;2.92;;;1.55;;
63398;SDS011;49533;-34.520;150.798;2023-05-10T08:34:43;3.60;;;1.08;;
63398;SDS011;49533;-34.520;150.798;2023-05-10T08:37:10;1.70;;;1.05;;
63398;SDS011;49533;-34.520;150.798;2023-05-10T08:39:38;2.38;;;1.45;;
63398;SDS011;49533;-34.520;150.798;2023-05-10T08:42:05;2.80;;;1.20;;
63398;SDS011;49533;-34.520;150.798;2023-05-10T08:44:34;2.65;;;1.35;;
63398;SDS011;49533;-34.520;150.798;2023-05-10T08:47:04;2.30;;;1.40;;
63398;SDS011;49533;-34.520;150.798;2023-05-10T08:49:33;2.75;;;1.38;;
63398;SDS011;49533;-34.520;150.798;2023-05-10T08:52:02;3.67;;;1.45;;
63398;SDS011;49533;-34.520;150.798;2023-05-10T08:54:31;2.05;;;1.05;;
63398;SDS011;49533;-34.520;150.798;2023-05-10T08:56:59;3.55;;;1.67;;
63398;SDS011;49533;-34.520;150.798;2023-05-10T08:59:27;2.40;;;1.45;;
63398;SDS011;49533;-34.520;150.798;2023-05-10T09:01:55;2.47;;;1.60;;
63398;SDS011;49533;-34.520;150.798;2023-05-10T09:04:24;3.22;;;1.45;;
63398;SDS011;49533;-34.520;150.798;2023-05-10T09:06:52;2.22;;;1.42;;
63398;SDS011;49533;-34.520;150.798;2023-05-10T09:09:19;3.55;;;1.30;;
63398;SDS011;49533;-34.520;150.798;2023-05-10T09:11:47;3.38;;;1.52;;
63398;SDS011;49533;-34.520;150.798;2023-05-10T09:14:14;3.33;;;1.88;;
63398;SDS011;49533;-34.520;150.798;2023-05-10T09:16:43;3.15;;;1.25;;
63398;SDS011;49533;-34.520;150.798;2023-05-10T09:19:10;1.80;;;1.02;;
63398;SDS011;49533;-34.520;150.798;2023-05-10T09:21:37;1.95;;;1.23;;
63398;SDS011;49533;-34.520;150.798;2023-05-10T09:24:05;3.13;;;1.10;;
63398;SDS011;49533;-34.520;150.798;2023-05-10T09:26:34;3.72;;;1.50;;
63398;SDS011;49533;-34.520;150.798;2023-05-10T09:29:02;2.83;;;1.67;;
63398;SDS011;49533;-34.520;150.798;2023-05-10T09:31:45;4.43;;;1.63;;
63398;SDS011;49533;-34.520;150.798;2023-05-10T09:34:18;3.33;;;0.98;;
63398;SDS011;49533;-34.520;150.798;2023-05-10T09:36:51;2.08;;;1.40;;
63398;SDS011;49533;-34.520;150.798;2023-05-10T09:39:19;2.55;;;1.55;;
63398;SDS011;49533;-34.520;150.798;2023-05-10T09:41:46;2.75;;;1.48;;
63398;SDS011;49533;-34.520;150.798;2023-05-10T09:44:16;3.03;;;1.33;;
63398;SDS011;49533;-34.520;150.798;2023-05-10T09:46:48;3.40;;;1.55;;
63398;SDS011;49533;-34.520;150.798;2023-05-10T09:49:18;2.53;;;1.50;;
63398;SDS011;49533;-34.520;150.798;2023-05-10T09:51:47;1.45;;;1.15;;
63398;SDS011;49533;-34.520;150.798;2023-05-10T09:54:25;1.70;;;1.13;;
63398;SDS011;49533;-34.520;150.798;2023-05-10T09:56:52;2.42;;;1.42;;
63398;SDS011;49533;-34.520;150.798;2023-05-10T09:59:19;1.98;;;1.23;;
63398;SDS011;49533;-34.520;150.798;2023-05-10T10:01:50;3.53;;;1.55;;
63398;SDS011;49533;-34.520;150.798;2023-05-10T10:04:18;2.00;;;1.00;;
63398;SDS011;49533;-34.520;150.798;2023-05-10T10:06:47;2.40;;;1.15;;
63398;SDS011;49533;-34.520;150.798;2023-05-10T10:09:27;1.95;;;1.38;;
63398;SDS011;49533;-34.520;150.798;2023-05-10T10:11:54;3.47;;;1.55;;
63398;SDS011;49533;-34.520;150.798;2023-05-10T10:14:22;2.42;;;0.90;;
63398;SDS011;49533;-34.520;150.798;2023-05-10T10:16:51;1.73;;;0.85;;
63398;SDS011;49533;-34.520;150.798;2023-05-10T10:19:19;1.88;;;1.10;;
63398;SDS011;49533;-34.520;150.798;2023-05-10T10:21:47;1.85;;;1.35;;
63398;SDS011;49533;-34.520;150.798;2023-05-10T10:24:16;1.63;;;0.93;;
63398;SDS011;49533;-34.520;150.798;2023-05-10T10:26:43;2.47;;;1.17;;
63398;SDS011;49533;-34.520;150.798;2023-05-10T10:32:17;1.35;;;1.20;;
63398;SDS011;49533;-34.520;150.798;2023-05-10T10:34:50;1.75;;;1.00;;
63398;SDS011;49533;-34.520;150.798;2023-05-10T10:37:18;1.33;;;1.02;;
63398;SDS011;49533;-34.520;150.798;2023-05-10T10:39:47;2.38;;;1.10;;
63398;SDS011;49533;-34.520;150.798;2023-05-10T10:42:37;1.15;;;0.98;;
63398;SDS011;49533;-34.520;150.798;2023-05-10T10:45:11;2.85;;;1.20;;
63398;SDS011;49533;-34.520;150.798;2023-05-10T10:47:39;2.08;;;1.38;;
63398;SDS011;49533;-34.520;150.798;2023-05-10T10:50:08;2.45;;;0.93;;
63398;SDS011;49533;-34.520;150.798;2023-05-10T10:52:42;0.75;;;0.52;;
63398;SDS011;49533;-34.520;150.798;2023-05-10T10:55:14;1.58;;;0.63;;
63398;SDS011;49533;-34.520;150.798;2023-05-10T10:57:50;1.05;;;0.68;;
63398;SDS011;49533;-34.520;150.798;2023-05-10T11:00:22;1.92;;;0.98;;
63398;SDS011;49533;-34.520;150.798;2023-05-10T11:02:59;1.25;;;0.98;;
63398;SDS011;49533;-34.520;150.798;2023-05-10T11:05:34;1.73;;;1.10;;
63398;SDS011;49533;-34.520;150.798;2023-05-10T11:08:10;1.05;;;0.90;;
63398;SDS011;49533;-34.520;150.798;2023-05-10T11:10:40;2.17;;;1.33;;
63398;SDS011;49533;-34.520;150.798;2023-05-10T11:13:21;0.90;;;0.90;;
63398;SDS011;49533;-34.520;150.798;2023-05-10T11:15:56;1.63;;;0.75;;
63398;SDS011;49533;-34.520;150.798;2023-05-10T11:18:27;2.53;;;1.00;;
63398;SDS011;49533;-34.520;150.798;2023-05-10T11:20:57;1.52;;;0.73;;
63398;SDS011;49533;-34.520;150.798;2023-05-10T11:23:30;2.65;;;0.98;;
63398;SDS011;49533;-34.520;150.798;2023-05-10T11:25:59;2.03;;;0.77;;
63398;SDS011;49533;-34.520;150.798;2023-05-10T11:28:26;1.33;;;0.90;;
63398;SDS011;49533;-34.520;150.798;2023-05-10T11:30:54;2.17;;;0.55;;
63398;SDS011;49533;-34.520;150.798;2023-05-10T11:33:21;2.65;;;1.00;;
63398;SDS011;49533;-34.520;150.798;2023-05-10T11:35:48;1.73;;;0.98;;
63398;SDS011;49533;-34.520;150.798;2023-05-10T11:38:15;1.45;;;0.90;;
63398;SDS011;49533;-34.520;150.798;2023-05-10T11:40:43;1.35;;;0.60;;
63398;SDS011;49533;-34.520;150.798;2023-05-10T11:43:10;0.90;;;0.75;;
63398;SDS011;49533;-34.520;150.798;2023-05-10T11:45:37;3.20;;;0.70;;
63398;SDS011;49533;-34.520;150.798;2023-05-10T11:48:06;2.00;;;1.10;;
63398;SDS011;49533;-34.520;150.798;2023-05-10T11:50:33;0.68;;;0.68;;
63398;SDS011;49533;-34.520;150.798;2023-05-10T11:53:01;0.95;;;0.77;;
63398;SDS011;49533;-34.520;150.798;2023-05-10T11:55:28;1.30;;;0.70;;
63398;SDS011;49533;-34.520;150.798;2023-05-10T11:57:59;1.80;;;0.68;;
63398;SDS011;49533;-34.520;150.798;2023-05-10T12:00:28;1.48;;;0.70;;
63398;SDS011;49533;-34.520;150.798;2023-05-10T12:02:56;0.68;;;0.60;;
63398;SDS011;49533;-34.520;150.798;2023-05-10T12:05:23;4.40;;;1.25;;
63398;SDS011;49533;-34.520;150.798;2023-05-10T12:07:51;2.13;;;1.20;;
63398;SDS011;49533;-34.520;150.798;2023-05-10T12:10:18;0.98;;;0.65;;
63398;SDS011;49533;-34.520;150.798;2023-05-10T12:12:52;1.33;;;0.60;;
63398;SDS011;49533;-34.520;150.798;2023-05-10T12:15:21;2.15;;;0.82;;
63398;SDS011;49533;-34.520;150.798;2023-05-10T12:17:50;1.23;;;0.73;;
63398;SDS011;49533;-34.520;150.798;2023-05-10T12:20:19;1.88;;;1.00;;
63398;SDS011;49533;-34.520;150.798;2023-05-10T12:22:51;0.65;;;0.47;;
63398;SDS011;49533;-34.520;150.798;2023-05-10T12:25:20;2.08;;;1.10;;
63398;SDS011;49533;-34.520;150.798;2023-05-10T12:27:50;1.45;;;0.60;;
63398;SDS011;49533;-34.520;150.798;2023-05-10T12:30:19;2.13;;;0.50;;
63398;SDS011;49533;-34.520;150.798;2023-05-10T12:32:51;2.15;;;0.70;;
63398;SDS011;49533;-34.520;150.798;2023-05-10T12:35:19;2.42;;;1.10;;
63398;SDS011;49533;-34.520;150.798;2023-05-10T12:37:47;2.00;;;0.77;;
63398;SDS011;49533;-34.520;150.798;2023-05-10T12:40:14;2.15;;;0.80;;
63398;SDS011;49533;-34.520;150.798;2023-05-10T12:42:42;1.48;;;0.75;;
63398;SDS011;49533;-34.520;150.798;2023-05-10T12:45:10;1.48;;;0.82;;
63398;SDS011;49533;-34.520;150.798;2023-05-10T12:47:37;2.40;;;1.10;;
63398;SDS011;49533;-34.520;150.798;2023-05-10T12:50:05;2.83;;;0.82;;
63398;SDS011;49533;-34.520;150.798;2023-05-10T12:52:33;2.28;;;0.55;;
63398;SDS011;49533;-34.520;150.798;2023-05-10T12:55:01;1.35;;;0.95;;
63398;SDS011;49533;-34.520;150.798;2023-05-10T12:57:28;0.73;;;0.60;;
63398;SDS011;49533;-34.520;150.798;2023-05-10T12:59:56;1.48;;;0.70;;
63398;SDS011;49533;-34.520;150.798;2023-05-10T13:02:23;1.13;;;0.65;;
63398;SDS011;49533;-34.520;150.798;2023-05-10T13:04:50;2.08;;;0.80;;
63398;SDS011;49533;-34.520;150.798;2023-05-10T13:07:17;1.60;;;0.57;;
63398;SDS011;49533;-34.520;150.798;2023-05-10T13:09:44;1.33;;;0.60;;
63398;SDS011;49533;-34.520;150.798;2023-05-10T13:12:11;2.08;;;0.75;;
63398;SDS011;49533;-34.520;150.798;2023-05-10T13:14:38;0.55;;;0.50;;
63398;SDS011;49533;-34.520;150.798;2023-05-10T13:17:06;1.58;;;0.75;;
63398;SDS011;49533;-34.520;150.798;2023-05-10T13:19:33;0.70;;;0.60;;
63398;SDS011;49533;-34.520;150.798;2023-05-10T13:22:01;1.50;;;0.55;;
63398;SDS011;49533;-34.520;150.798;2023-05-10T13:24:29;3.40;;;0.70;;
63398;SDS011;49533;-34.520;150.798;2023-05-10T13:26:56;1.35;;;0.73;;
63398;SDS011;49533;-34.520;150.798;2023-05-10T13:29:23;1.35;;;0.77;;
63398;SDS011;49533;-34.520;150.798;2023-05-10T13:31:50;1.83;;;0.57;;
63398;SDS011;49533;-34.520;150.798;2023-05-10T13:34:17;1.15;;;0.55;;
63398;SDS011;49533;-34.520;150.798;2023-05-10T13:36:46;2.55;;;0.60;;
63398;SDS011;49533;-34.520;150.798;2023-05-10T13:39:14;3.65;;;0.93;;
63398;SDS011;49533;-34.520;150.798;2023-05-10T13:41:42;0.93;;;0.68;;
63398;SDS011;49533;-34.520;150.798;2023-05-10T13:44:11;1.45;;;0.70;;
63398;SDS011;49533;-34.520;150.798;2023-05-10T13:46:40;2.45;;;0.60;;
63398;SDS011;49533;-34.520;150.798;2023-05-10T13:49:09;1.15;;;0.73;;
63398;SDS011;49533;-34.520;150.798;2023-05-10T13:51:36;0.73;;;0.57;;
63398;SDS011;49533;-34.520;150.798;2023-05-10T13:54:03;1.25;;;0.60;;
63398;SDS011;49533;-34.520;150.798;2023-05-10T13:56:31;0.80;;;0.55;;
63398;SDS011;49533;-34.520;150.798;2023-05-10T13:58:58;1.15;;;0.60;;
63398;SDS011;49533;-34.520;150.798;2023-05-10T14:01:25;0.90;;;0.57;;
63398;SDS011;49533;-34.520;150.798;2023-05-10T14:03:52;1.73;;;0.80;;
63398;SDS011;49533;-34.520;150.798;2023-05-10T14:06:19;1.42;;;0.70;;
63398;SDS011;49533;-34.520;150.798;2023-05-10T14:08:47;1.30;;;0.52;;
63398;SDS011;49533;-34.520;150.798;2023-05-10T14:11:14;0.80;;;0.55;;
63398;SDS011;49533;-34.520;150.798;2023-05-10T14:13:41;2.60;;;0.80;;
63398;SDS011;49533;-34.520;150.798;2023-05-10T14:16:08;0.95;;;0.55;;
63398;SDS011;49533;-34.520;150.798;2023-05-10T14:18:35;0.63;;;0.35;;
63398;SDS011;49533;-34.520;150.798;2023-05-10T14:21:02;2.13;;;0.73;;
63398;SDS011;49533;-34.520;150.798;2023-05-10T14:23:30;1.10;;;0.60;;
63398;SDS011;49533;-34.520;150.798;2023-05-10T14:25:58;1.50;;;0.70;;
63398;SDS011;49533;-34.520;150.798;2023-05-10T14:28:25;0.93;;;0.57;;
63398;SDS011;49533;-34.520;150.798;2023-05-10T14:30:52;1.05;;;0.50;;
63398;SDS011;49533;-34.520;150.798;2023-05-10T14:33:20;1.52;;;0.52;;